YM Kaohsiung — MCGF6 — position and weather

sailwx.info

Track history (hours):
 
Tides and Currents Weather Stations Pressure Air Temp Water Temp Dewpoint Dewpoint Depression Visibility Wind Speed Wind Dir Waves Ship Positions

YM Kaohsiung

Last reported at 2015-Jan-28 00:28 UTC. Time now 2015-Jan-31 05:32 UTC.
Position N 01°55' E 102°21'.

Length 260 m; draft 11.2 m.

Type: Cargo ship. MMSI: 235767000.

Date/timePositionNaut miles runAvg speedWind from/ knotsBaromVisibWave heightAir tempDewpointWater temp
2015-Jan-28 00:28N 01°55' E 102°21'1314.8
2015-Jan-27 23:33N 01°49' E 102°33'1414.3
2015-Jan-27 22:33N 01°43' E 102°46'6612.1
2015-Jan-27 17:08N 01°16' E 103°46'0 0.6
2015-Jan-27 16:28N 01°16' E 103°46'0 0.0
2015-Jan-27 15:28N 01°16' E 103°46'0 0.0
2015-Jan-27 14:28N 01°16' E 103°46'0 0.0
2015-Jan-27 13:27N 01°16' E 103°46'0 0.0
2015-Jan-27 12:30N 01°16' E 103°46'0 0.0
2015-Jan-27 11:30N 01°16' E 103°46'0 0.0
2015-Jan-27 10:30N 01°16' E 103°46'0 0.0
2015-Jan-27 09:24N 01°16' E 103°46'0 0.0
2015-Jan-27 08:30N 01°16' E 103°46'0 0.0
2015-Jan-27 07:33N 01°16' E 103°46'0 0.0
2015-Jan-27 06:30N 01°16' E 103°46'0 0.0
2015-Jan-27 05:30N 01°16' E 103°46'0 0.3
2015-Jan-27 04:33N 01°16' E 103°46'7 6.7
2015-Jan-27 03:33N 01°13' E 103°53'7 6.5
2015-Jan-27 02:33N 01°15' E 103°59'1212.0
2015-Jan-27 01:33N 01°17' E 104°11'  
2015-Jan-23 22:09N 22°07' E 114°19'1710.5
2015-Jan-23 20:33N 22°20' E 114°07'0 0.2
2015-Jan-23 19:33N 22°20' E 114°08'0 0.0
2015-Jan-23 18:05N 22°20' E 114°08'0 0.0
2015-Jan-23 17:11N 22°20' E 114°08'0 0.0
2015-Jan-23 16:29N 22°20' E 114°08'0 0.0
2015-Jan-23 15:29N 22°20' E 114°08'0 0.0
2015-Jan-23 14:31N 22°20' E 114°08'0 0.0
2015-Jan-23 13:31N 22°20' E 114°08'0 0.0
2015-Jan-23 12:31N 22°20' E 114°08'0 0.0
2015-Jan-23 11:33N 22°20' E 114°08'0 0.0
2015-Jan-23 10:33N 22°20' E 114°08'1 1.3
2015-Jan-23 09:33N 22°19' E 114°06'1310.6
2015-Jan-23 08:21N 22°09' E 114°15'911.3
2015-Jan-23 07:33N 22°08' E 114°24'34416.0
2015-Jan-22 10:04N 25°17' E 119°38'713.1
2015-Jan-22 09:33N 25°19' E 119°31'1414.1
2015-Jan-22 08:33N 25°25' E 119°17'377 7.5
2015-Jan-20 06:07N 31°20' E 121°39'0 0.0
2015-Jan-20 05:30N 31°20' E 121°39'0 0.0
2015-Jan-20 04:33N 31°20' E 121°39'0 0.0
2015-Jan-20 03:32N 31°20' E 121°39'3 2.6
2015-Jan-20 02:32N 31°20' E 121°42'1110.9
2015-Jan-20 01:33N 31°16' E 121°54'293 8.9
2015-Jan-18 16:33N 35°59' E 120°28'1111.0
2015-Jan-18 15:33N 36°02' E 120°15'3 0.4
2015-Jan-18 07:30N 36°00' E 120°12'1 0.1
2015-Jan-18 01:07N 36°00' E 120°13'610.0
2015-Jan-18 00:33N 36°02' E 120°19'  
Track history (hours):
 
Tides and Currents Weather Stations Pressure Air Temp Water Temp Dewpoint Dewpoint Depression Visibility Wind Speed Wind Dir Waves Ship Positions

YM Kaohsiung

Last reported at 2015-Jan-28 00:28 UTC. Time now 2015-Jan-31 05:32 UTC.
Position N 01°55' E 102°21'.

Length 260 m; draft 11.2 m.

Type: Cargo ship. MMSI: 235767000.

Date/timePositionNaut miles runAvg speedWind from/ knotsBaromVisibWave heightAir tempDewpointWater temp
2015-Jan-28 00:28N 01°55' E 102°21'1314.8
2015-Jan-27 23:33N 01°49' E 102°33'1414.3
2015-Jan-27 22:33N 01°43' E 102°46'6612.1
2015-Jan-27 17:08N 01°16' E 103°46'0 0.6
2015-Jan-27 16:28N 01°16' E 103°46'0 0.0
2015-Jan-27 15:28N 01°16' E 103°46'0 0.0
2015-Jan-27 14:28N 01°16' E 103°46'0 0.0
2015-Jan-27 13:27N 01°16' E 103°46'0 0.0
2015-Jan-27 12:30N 01°16' E 103°46'0 0.0
2015-Jan-27 11:30N 01°16' E 103°46'0 0.0
2015-Jan-27 10:30N 01°16' E 103°46'0 0.0
2015-Jan-27 09:24N 01°16' E 103°46'0 0.0
2015-Jan-27 08:30N 01°16' E 103°46'0 0.0
2015-Jan-27 07:33N 01°16' E 103°46'0 0.0
2015-Jan-27 06:30N 01°16' E 103°46'0 0.0
2015-Jan-27 05:30N 01°16' E 103°46'0 0.3
2015-Jan-27 04:33N 01°16' E 103°46'7 6.7
2015-Jan-27 03:33N 01°13' E 103°53'7 6.5
2015-Jan-27 02:33N 01°15' E 103°59'1212.0
2015-Jan-27 01:33N 01°17' E 104°11'  
2015-Jan-23 22:09N 22°07' E 114°19'1710.5
2015-Jan-23 20:33N 22°20' E 114°07'0 0.2
2015-Jan-23 19:33N 22°20' E 114°08'0 0.0
2015-Jan-23 18:05N 22°20' E 114°08'0 0.0
2015-Jan-23 17:11N 22°20' E 114°08'0 0.0
2015-Jan-23 16:29N 22°20' E 114°08'0 0.0
2015-Jan-23 15:29N 22°20' E 114°08'0 0.0
2015-Jan-23 14:31N 22°20' E 114°08'0 0.0
2015-Jan-23 13:31N 22°20' E 114°08'0 0.0
2015-Jan-23 12:31N 22°20' E 114°08'0 0.0
2015-Jan-23 11:33N 22°20' E 114°08'0 0.0
2015-Jan-23 10:33N 22°20' E 114°08'1 1.3
2015-Jan-23 09:33N 22°19' E 114°06'1310.6
2015-Jan-23 08:21N 22°09' E 114°15'911.3
2015-Jan-23 07:33N 22°08' E 114°24'34416.0
2015-Jan-22 10:04N 25°17' E 119°38'713.1
2015-Jan-22 09:33N 25°19' E 119°31'1414.1
2015-Jan-22 08:33N 25°25' E 119°17'377 7.5
2015-Jan-20 06:07N 31°20' E 121°39'0 0.0
2015-Jan-20 05:30N 31°20' E 121°39'0 0.0
2015-Jan-20 04:33N 31°20' E 121°39'0 0.0
2015-Jan-20 03:32N 31°20' E 121°39'3 2.6
2015-Jan-20 02:32N 31°20' E 121°42'1110.9
2015-Jan-20 01:33N 31°16' E 121°54'293 8.9
2015-Jan-18 16:33N 35°59' E 120°28'1111.0
2015-Jan-18 15:33N 36°02' E 120°15'3 0.4
2015-Jan-18 07:30N 36°00' E 120°12'1 0.1
2015-Jan-18 01:07N 36°00' E 120°13'610.0
2015-Jan-18 00:33N 36°02' E 120°19'  

Dump ship's entire track history